aviador You're here:

KMLT Decoded Metar

MILLINOCKET in ME, USA
Report Time2017-07-21 13:53:00
UTC Time2017-07-21 14:49:40
Flight Rules vfr VFR
Wind280° at 07 kt
W.Decomp.*RWY 29: 6.9 kt HW 0.9 kt RCW
RWY 34: 5.1 kt HW 4.8 kt LCW
W.Rank280° ranks 3
Current wind is below 280° avg. (7.4)
Visibility9999 m
Phenomena:N/A
Clouds:N/A
Expected CloudBase > 2,400 ft AGL from Temp-Dew spread
CeilingNone
Temp24°C (ISA +10)
Dew Point18°C (69% RH)
QNH1009 hPa
Density Alt1,952 ft
Elevation404 ft
Report Wrong Elevation
Raw Report
METAR KMLT 211353Z AUTO 28007KT 10SM CLR 24/18 A2979 RMK AO2 SLP091
T02390183 TSNO=

Extra information for KMLT:More info

Metar Taf Metar & Taf Last 4 Metars F.Rules Stats Wind Profile Meteogram Temp Stats Airport Information Weather charts Add Link Nearby VenuesMetar ALERT Operation Metar Decoded Social comments

AIRNAV info for KMLT